createdAt,value
2017-10-11T00:00:04.884Z,995.9
2017-10-11T00:00:25.060Z,995.9
2017-10-11T00:00:45.261Z,995.9
2017-10-11T00:01:05.456Z,995.8
2017-10-11T00:01:25.635Z,995.9
2017-10-11T00:01:45.797Z,995.9
2017-10-11T00:02:06.038Z,995.9
2017-10-11T00:02:26.210Z,995.9
2017-10-11T00:02:46.406Z,995.8
2017-10-11T00:03:06.615Z,995.9
2017-10-11T00:03:26.857Z,995.9
2017-10-11T00:03:47.089Z,995.9
2017-10-11T00:04:07.297Z,995.9
2017-10-11T00:04:27.462Z,995.9
2017-10-11T00:04:47.695Z,995.9
2017-10-11T00:05:07.865Z,995.9
2017-10-11T00:05:28.040Z,995.9
2017-10-11T00:05:48.283Z,995.9
2017-10-11T00:06:08.452Z,995.9
2017-10-11T00:06:28.626Z,995.9
2017-10-11T00:06:48.801Z,995.9
2017-10-11T00:07:09.007Z,995.9
2017-10-11T00:07:29.179Z,996
2017-10-11T00:07:49.354Z,996
2017-10-11T00:08:09.525Z,995.9
2017-10-11T00:08:29.696Z,995.9
2017-10-11T00:08:49.913Z,995.9
2017-10-11T00:09:10.080Z,995.9
2017-10-11T00:09:30.309Z,995.9
2017-10-11T00:09:50.499Z,995.9
2017-10-11T00:10:10.682Z,995.9
2017-10-11T00:10:30.864Z,995.9
2017-10-11T00:10:51.036Z,995.9
2017-10-11T00:11:11.207Z,995.9
2017-10-11T00:11:31.373Z,995.9
2017-10-11T00:11:51.553Z,995.9
2017-10-11T00:12:11.726Z,995.9
2017-10-11T00:12:31.896Z,995.9
2017-10-11T00:12:52.077Z,995.9
2017-10-11T00:13:12.277Z,995.9
2017-10-11T00:13:32.455Z,995.9
2017-10-11T00:13:52.656Z,995.9
2017-10-11T00:14:12.835Z,995.9
2017-10-11T00:14:33.070Z,995.9
2017-10-11T00:14:53.253Z,995.9
2017-10-11T00:15:13.547Z,995.9
2017-10-11T00:15:33.713Z,995.9
2017-10-11T00:15:53.953Z,995.9
2017-10-11T00:16:14.130Z,995.9
2017-10-11T00:16:34.301Z,995.9
2017-10-11T00:16:54.535Z,995.9
2017-10-11T00:17:14.728Z,996
2017-10-11T00:17:34.904Z,995.9
2017-10-11T00:17:55.134Z,995.9
2017-10-11T00:18:15.310Z,995.9
2017-10-11T00:18:35.500Z,995.9
2017-10-11T00:18:55.698Z,995.9
2017-10-11T00:19:15.871Z,995.9
2017-10-11T00:19:36.120Z,995.9
2017-10-11T00:19:56.294Z,995.9
2017-10-11T00:20:16.497Z,995.9
2017-10-11T00:20:36.740Z,995.9
2017-10-11T00:20:56.909Z,995.9
2017-10-11T00:21:17.081Z,995.9
2017-10-11T00:21:37.480Z,995.9
2017-10-11T00:21:57.659Z,995.9
2017-10-11T00:22:17.841Z,996
2017-10-11T00:22:38.015Z,996
2017-10-11T00:22:58.198Z,995.9
2017-10-11T00:23:18.374Z,996
2017-10-11T00:23:38.580Z,996
2017-10-11T00:23:58.759Z,996
2017-10-11T00:24:18.939Z,996
2017-10-11T00:24:39.127Z,996
2017-10-11T00:24:59.302Z,996
2017-10-11T00:25:19.483Z,995.9
2017-10-11T00:25:39.655Z,996
2017-10-11T00:25:59.837Z,996
2017-10-11T00:26:20.097Z,996
2017-10-11T00:26:40.273Z,996
2017-10-11T00:27:00.445Z,996
2017-10-11T00:27:20.614Z,996
2017-10-11T00:27:40.914Z,996
2017-10-11T00:28:01.100Z,996
2017-10-11T00:28:21.284Z,996
2017-10-11T00:28:41.469Z,996
2017-10-11T00:29:01.643Z,996
2017-10-11T00:29:21.869Z,996
2017-10-11T00:29:42.133Z,996
2017-10-11T00:30:02.324Z,996
2017-10-11T00:30:22.519Z,996
2017-10-11T00:30:42.706Z,996
2017-10-11T00:31:02.892Z,996
2017-10-11T00:31:23.066Z,996
2017-10-11T00:31:43.297Z,996
2017-10-11T00:32:03.578Z,996
2017-10-11T00:32:23.817Z,996
2017-10-11T00:32:44.013Z,996
2017-10-11T00:33:04.182Z,996
2017-10-11T00:33:24.403Z,996
2017-10-11T00:33:44.652Z,996
2017-10-11T00:34:04.849Z,996
2017-10-11T00:34:25.023Z,996
2017-10-11T00:34:45.197Z,996
2017-10-11T00:35:05.377Z,996
2017-10-11T00:35:25.544Z,996
2017-10-11T00:35:45.776Z,996
2017-10-11T00:36:05.969Z,996
2017-10-11T00:36:26.151Z,996
2017-10-11T00:36:46.337Z,996
2017-10-11T00:37:06.518Z,996
2017-10-11T00:37:26.707Z,996
2017-10-11T00:37:46.884Z,996
2017-10-11T00:38:07.110Z,996
2017-10-11T00:38:27.317Z,996
2017-10-11T00:38:47.566Z,996
2017-10-11T00:39:07.803Z,996
2017-10-11T00:39:27.984Z,996
2017-10-11T00:39:48.168Z,996
2017-10-11T00:40:08.418Z,995.9
2017-10-11T00:40:28.592Z,995.9
2017-10-11T00:40:48.827Z,996
2017-10-11T00:41:09.130Z,996
2017-10-11T00:41:29.479Z,995.9
2017-10-11T00:41:49.674Z,995.9
2017-10-11T00:42:09.936Z,995.9
2017-10-11T00:42:30.170Z,995.9
2017-10-11T00:42:50.403Z,995.9
2017-10-11T00:43:10.689Z,995.9
2017-10-11T00:43:30.870Z,995.9
2017-10-11T00:43:51.040Z,995.9
2017-10-11T00:44:11.253Z,995.9
2017-10-11T00:44:31.441Z,995.8
2017-10-11T00:44:51.707Z,995.9
2017-10-11T00:45:11.886Z,995.9
2017-10-11T00:45:32.067Z,995.8
2017-10-11T00:45:52.243Z,995.9
2017-10-11T00:46:12.440Z,995.9
2017-10-11T00:46:32.671Z,995.9
2017-10-11T00:46:52.854Z,995.9
2017-10-11T00:47:13.046Z,995.9
2017-10-11T00:47:33.226Z,995.8
2017-10-11T00:47:53.411Z,995.9
2017-10-11T00:48:13.652Z,995.9
2017-10-11T00:48:33.841Z,995.9
2017-10-11T00:48:54.028Z,995.9
2017-10-11T00:49:14.209Z,995.8
2017-10-11T00:49:34.498Z,995.9
2017-10-11T00:49:54.680Z,995.8
2017-10-11T00:50:14.852Z,995.8
2017-10-11T00:50:35.090Z,995.8
2017-10-11T00:50:57.038Z,995.8
2017-10-11T00:51:17.267Z,995.8
2017-10-11T00:51:37.497Z,995.8
2017-10-11T00:51:57.719Z,995.8
2017-10-11T00:52:17.960Z,995.8
2017-10-11T00:52:38.135Z,995.8
2017-10-11T00:52:58.316Z,995.8
2017-10-11T00:53:18.505Z,995.8
2017-10-11T00:53:38.682Z,995.7
2017-10-11T00:53:58.865Z,995.7
2017-10-11T00:54:19.052Z,995.7
2017-10-11T00:54:39.292Z,995.7
2017-10-11T00:54:59.460Z,995.7
2017-10-11T00:55:19.641Z,995.7
2017-10-11T00:55:39.820Z,995.7
2017-10-11T00:56:00.007Z,995.7
2017-10-11T00:56:20.184Z,995.7
2017-10-11T00:56:40.418Z,995.7
2017-10-11T00:57:00.594Z,995.7
2017-10-11T00:57:20.777Z,995.7
2017-10-11T00:57:40.965Z,995.7
2017-10-11T00:58:01.135Z,995.7
2017-10-11T00:58:21.313Z,995.7
2017-10-11T00:58:41.546Z,995.7
2017-10-11T00:59:01.712Z,995.8
2017-10-11T00:59:21.944Z,995.7
2017-10-11T00:59:42.190Z,995.7
2017-10-11T01:00:02.435Z,995.7
2017-10-11T01:00:22.618Z,995.7
2017-10-11T01:00:42.842Z,995.7
2017-10-11T01:01:03.077Z,995.7
2017-10-11T01:01:23.310Z,995.7
2017-10-11T01:01:43.494Z,995.7
2017-10-11T01:02:03.683Z,995.7
2017-10-11T01:02:24.021Z,995.7
2017-10-11T01:02:44.263Z,995.7
2017-10-11T01:03:04.451Z,995.7
2017-10-11T01:03:24.632Z,995.7
2017-10-11T01:03:44.806Z,995.7
2017-10-11T01:04:04.983Z,995.7
2017-10-11T01:04:25.162Z,995.7
2017-10-11T01:04:45.393Z,995.7
2017-10-11T01:05:05.568Z,995.7
2017-10-11T01:05:25.747Z,995.7
2017-10-11T01:05:45.931Z,995.7
2017-10-11T01:06:06.102Z,995.7
2017-10-11T01:06:26.283Z,995.7
2017-10-11T01:06:46.462Z,995.6
2017-10-11T01:07:06.697Z,995.7
2017-10-11T01:07:26.866Z,995.7
2017-10-11T01:07:47.042Z,995.7
2017-10-11T01:08:07.222Z,995.7
2017-10-11T01:08:27.401Z,995.7
2017-10-11T01:08:47.572Z,995.7
2017-10-11T01:09:07.742Z,995.7
2017-10-11T01:09:27.915Z,995.7
2017-10-11T01:09:48.090Z,995.7
2017-10-11T01:10:08.272Z,995.7
2017-10-11T01:10:28.447Z,995.7
2017-10-11T01:10:48.627Z,995.7
2017-10-11T01:11:08.794Z,995.7
2017-10-11T01:11:28.968Z,995.7
2017-10-11T01:11:49.136Z,995.7
2017-10-11T01:12:09.314Z,995.7
2017-10-11T01:12:29.496Z,995.7
2017-10-11T01:12:49.671Z,995.7
2017-10-11T01:13:09.844Z,995.6
2017-10-11T01:13:30.052Z,995.7
2017-10-11T01:13:50.232Z,995.7
2017-10-11T01:14:10.404Z,995.7
2017-10-11T01:14:30.661Z,995.6
2017-10-11T01:14:50.951Z,995.6
2017-10-11T01:15:11.194Z,995.6
2017-10-11T01:15:31.450Z,995.7
2017-10-11T01:15:51.623Z,995.7
2017-10-11T01:16:11.798Z,995.7
2017-10-11T01:16:31.986Z,995.6
2017-10-11T01:16:52.164Z,995.7
2017-10-11T01:17:12.334Z,995.7
2017-10-11T01:17:32.510Z,995.7
2017-10-11T01:17:52.739Z,995.6
2017-10-11T01:18:12.951Z,995.6
2017-10-11T01:18:33.200Z,995.6
2017-10-11T01:18:53.385Z,995.7
2017-10-11T01:19:13.558Z,995.7
2017-10-11T01:19:33.724Z,995.6
2017-10-11T01:19:53.906Z,995.6
2017-10-11T01:20:14.126Z,995.6
2017-10-11T01:20:34.297Z,995.6
2017-10-11T01:20:54.541Z,995.7
2017-10-11T01:21:14.716Z,995.6
2017-10-11T01:21:34.892Z,995.5
2017-10-11T01:21:55.126Z,995.6
2017-10-11T01:22:15.372Z,995.6
2017-10-11T01:22:35.601Z,995.6
2017-10-11T01:22:55.775Z,995.6
2017-10-11T01:23:16.176Z,995.6
2017-10-11T01:23:36.415Z,995.6
2017-10-11T01:23:56.567Z,995.6
2017-10-11T01:24:16.768Z,995.6
2017-10-11T01:24:36.937Z,995.6
2017-10-11T01:24:57.187Z,995.6
2017-10-11T01:25:17.354Z,995.6
2017-10-11T01:25:37.657Z,995.6
2017-10-11T01:25:57.836Z,995.6
2017-10-11T01:26:18.016Z,995.6
2017-10-11T01:26:38.243Z,995.6
2017-10-11T01:26:58.531Z,995.6
2017-10-11T01:27:18.701Z,995.6
2017-10-11T01:27:38.962Z,995.6
2017-10-11T01:27:59.144Z,995.6
2017-10-11T01:28:19.314Z,995.6
2017-10-11T01:28:39.481Z,995.6
2017-10-11T01:28:59.728Z,995.6
2017-10-11T01:29:19.964Z,995.6
2017-10-11T01:29:40.206Z,995.6
2017-10-11T01:30:00.496Z,995.6
2017-10-11T01:30:20.672Z,995.6
2017-10-11T01:30:40.878Z,995.6
2017-10-11T01:31:01.047Z,995.6
2017-10-11T01:31:21.225Z,995.6
2017-10-11T01:31:41.400Z,995.6
2017-10-11T01:32:01.690Z,995.6
2017-10-11T01:32:21.857Z,995.6
2017-10-11T01:32:42.037Z,995.6
2017-10-11T01:33:02.209Z,995.6
2017-10-11T01:33:22.447Z,995.6
2017-10-11T01:33:42.620Z,995.6
2017-10-11T01:34:02.797Z,995.6
2017-10-11T01:34:23.000Z,995.6
2017-10-11T01:34:43.175Z,995.6
2017-10-11T01:35:03.350Z,995.6
2017-10-11T01:35:23.536Z,995.6
2017-10-11T01:35:43.719Z,995.6
2017-10-11T01:36:03.901Z,995.6
2017-10-11T01:36:24.072Z,995.6
2017-10-11T01:36:44.260Z,995.6
2017-10-11T01:37:04.603Z,995.6
2017-10-11T01:37:24.784Z,995.6
2017-10-11T01:37:45.066Z,995.6
2017-10-11T01:38:05.315Z,995.6
2017-10-11T01:38:25.554Z,995.6
2017-10-11T01:38:45.729Z,995.6
2017-10-11T01:39:05.955Z,995.6
2017-10-11T01:39:26.137Z,995.6
2017-10-11T01:39:46.313Z,995.6
2017-10-11T01:40:06.485Z,995.6
2017-10-11T01:40:26.656Z,995.7
2017-10-11T01:40:46.846Z,995.6
2017-10-11T01:41:07.022Z,995.6
2017-10-11T01:41:27.198Z,995.6
2017-10-11T01:41:47.364Z,995.6
2017-10-11T01:42:07.544Z,995.6
2017-10-11T01:42:27.762Z,995.6
2017-10-11T01:42:47.934Z,995.6
2017-10-11T01:43:08.163Z,995.6
2017-10-11T01:43:28.337Z,995.6
2017-10-11T01:43:48.513Z,995.6
2017-10-11T01:44:08.693Z,995.6
2017-10-11T01:44:28.864Z,995.7
2017-10-11T01:44:49.044Z,995.6
2017-10-11T01:45:09.215Z,995.6
2017-10-11T01:45:29.404Z,995.6
2017-10-11T01:45:49.628Z,995.6
2017-10-11T01:46:09.812Z,995.6
2017-10-11T01:46:29.980Z,995.6
2017-10-11T01:46:50.144Z,995.6
2017-10-11T01:47:10.334Z,995.6
2017-10-11T01:47:30.508Z,995.7
2017-10-11T01:47:50.679Z,995.6
2017-10-11T01:48:10.947Z,995.6
2017-10-11T01:48:31.196Z,995.7
2017-10-11T01:48:51.376Z,995.6
2017-10-11T01:49:11.628Z,995.7
2017-10-11T01:49:31.810Z,995.6
2017-10-11T01:49:51.987Z,995.6
2017-10-11T01:50:12.251Z,995.6
2017-10-11T01:50:32.430Z,995.6
2017-10-11T01:50:52.603Z,995.6
2017-10-11T01:51:12.779Z,995.6
2017-10-11T01:51:32.944Z,995.6
2017-10-11T01:51:53.216Z,995.7
2017-10-11T01:52:13.390Z,995.6
2017-10-11T01:52:33.588Z,995.6
2017-10-11T01:52:53.846Z,995.6
2017-10-11T01:53:14.021Z,995.7
2017-10-11T01:53:34.205Z,995.6
2017-10-11T01:53:54.395Z,995.6
2017-10-11T01:54:14.618Z,995.6
2017-10-11T01:54:34.971Z,995.6
2017-10-11T01:54:55.138Z,995.7
2017-10-11T01:55:15.380Z,995.6
2017-10-11T01:55:35.621Z,995.7
2017-10-11T01:55:55.801Z,995.6
2017-10-11T01:56:15.999Z,995.6
2017-10-11T01:56:36.166Z,995.6
2017-10-11T01:56:56.342Z,995.6
2017-10-11T01:57:16.517Z,995.6
2017-10-11T01:57:36.792Z,995.6
2017-10-11T01:57:57.017Z,995.5
2017-10-11T01:58:17.184Z,995.6
2017-10-11T01:58:37.368Z,995.6
2017-10-11T01:58:57.538Z,995.6
2017-10-11T01:59:17.722Z,995.6
2017-10-11T01:59:37.924Z,995.6
2017-10-11T01:59:58.189Z,995.6
2017-10-11T02:00:18.369Z,995.5
2017-10-11T02:00:38.549Z,995.5
2017-10-11T02:00:58.725Z,995.6
2017-10-11T02:01:18.905Z,995.6
2017-10-11T02:01:39.087Z,995.6
2017-10-11T02:01:59.257Z,995.6
2017-10-11T02:02:19.428Z,995.6
2017-10-11T02:02:39.603Z,995.6
2017-10-11T02:02:59.780Z,995.6
2017-10-11T02:03:19.959Z,995.6
2017-10-11T02:03:40.219Z,995.6
2017-10-11T02:04:00.419Z,995.6
2017-10-11T02:04:20.663Z,995.6
2017-10-11T02:04:40.831Z,995.6
2017-10-11T02:05:01.001Z,995.6
2017-10-11T02:05:21.165Z,995.6
2017-10-11T02:05:41.338Z,995.7
2017-10-11T02:06:01.505Z,995.6
2017-10-11T02:06:21.675Z,995.6
2017-10-11T02:06:41.912Z,995.6
2017-10-11T02:07:02.088Z,995.6
2017-10-11T02:07:22.276Z,995.6
2017-10-11T02:07:42.536Z,995.6
2017-10-11T02:08:02.838Z,995.6
2017-10-11T02:08:23.191Z,995.5
2017-10-11T02:08:43.376Z,995.6
2017-10-11T02:09:03.722Z,995.6
2017-10-11T02:09:23.890Z,995.6
2017-10-11T02:09:44.072Z,995.6
2017-10-11T02:10:04.259Z,995.6
2017-10-11T02:10:24.440Z,995.6
2017-10-11T02:10:44.673Z,995.5
2017-10-11T02:11:04.860Z,995.6
2017-10-11T02:11:25.024Z,995.6
2017-10-11T02:11:45.194Z,995.5
2017-10-11T02:12:05.437Z,995.5
2017-10-11T02:12:25.613Z,995.5
2017-10-11T02:12:45.796Z,995.6
2017-10-11T02:13:06.161Z,995.5
2017-10-11T02:13:26.336Z,995.6
2017-10-11T02:13:46.514Z,995.6
2017-10-11T02:14:06.811Z,995.6
2017-10-11T02:14:26.984Z,995.6
2017-10-11T02:14:47.163Z,995.6
2017-10-11T02:15:07.332Z,995.6
2017-10-11T02:15:27.611Z,995.5
2017-10-11T02:15:47.840Z,995.6
2017-10-11T02:16:08.007Z,995.5
2017-10-11T02:16:28.371Z,995.6
2017-10-11T02:16:48.604Z,995.6
2017-10-11T02:17:08.968Z,995.6
2017-10-11T02:17:29.232Z,995.6
2017-10-11T02:17:49.496Z,995.6
2017-10-11T02:18:09.676Z,995.5
2017-10-11T02:18:29.846Z,995.6
2017-10-11T02:18:50.034Z,995.6
2017-10-11T02:19:10.247Z,995.6
2017-10-11T02:19:30.483Z,995.5
2017-10-11T02:19:50.656Z,995.5
2017-10-11T02:20:10.933Z,995.6
2017-10-11T02:20:31.154Z,995.5
2017-10-11T02:20:51.335Z,995.6
2017-10-11T02:21:11.504Z,995.6
2017-10-11T02:21:31.756Z,995.6
2017-10-11T02:21:51.930Z,995.5
2017-10-11T02:22:12.129Z,995.6
2017-10-11T02:22:32.317Z,995.5
2017-10-11T02:22:52.502Z,995.5
2017-10-11T02:23:12.755Z,995.5
2017-10-11T02:23:32.931Z,995.5
2017-10-11T02:23:53.135Z,995.6
2017-10-11T02:24:13.294Z,995.6
2017-10-11T02:24:33.472Z,995.6
2017-10-11T02:24:53.658Z,995.6
2017-10-11T02:25:13.852Z,995.6
2017-10-11T02:25:34.036Z,995.5
2017-10-11T02:25:54.212Z,995.5
2017-10-11T02:26:14.386Z,995.6
2017-10-11T02:26:34.561Z,995.6
2017-10-11T02:26:54.732Z,995.5
2017-10-11T02:27:14.911Z,995.5
2017-10-11T02:27:35.165Z,995.6
2017-10-11T02:27:55.366Z,995.6
2017-10-11T02:28:15.547Z,995.5
2017-10-11T02:28:35.734Z,995.5
2017-10-11T02:28:55.903Z,995.6
2017-10-11T02:29:16.078Z,995.6
2017-10-11T02:29:36.253Z,995.6
2017-10-11T02:29:56.450Z,995.6
2017-10-11T02:30:16.766Z,995.6
2017-10-11T02:30:36.948Z,995.6
2017-10-11T02:30:57.128Z,995.5
2017-10-11T02:31:17.315Z,995.5
2017-10-11T02:31:37.550Z,995.5
2017-10-11T02:31:57.721Z,995.6
2017-10-11T02:32:17.896Z,995.5
2017-10-11T02:32:38.069Z,995.5
2017-10-11T02:32:58.237Z,995.6
2017-10-11T02:33:18.414Z,995.6
2017-10-11T02:33:38.661Z,995.6
2017-10-11T02:33:58.820Z,995.6
2017-10-11T02:34:19.061Z,995.6
2017-10-11T02:34:39.254Z,995.5
2017-10-11T02:34:59.559Z,995.5
2017-10-11T02:35:19.742Z,995.5
2017-10-11T02:35:39.972Z,995.5
2017-10-11T02:36:00.172Z,995.5
2017-10-11T02:36:20.502Z,995.5
2017-10-11T02:36:40.690Z,995.5
2017-10-11T02:37:00.870Z,995.6
2017-10-11T02:37:21.036Z,995.5
2017-10-11T02:37:41.208Z,995.5
2017-10-11T02:38:01.385Z,995.5
2017-10-11T02:38:21.569Z,995.5
2017-10-11T02:38:41.821Z,995.5
2017-10-11T02:39:01.997Z,995.5
2017-10-11T02:39:22.167Z,995.5
2017-10-11T02:39:42.343Z,995.5
2017-10-11T02:40:02.512Z,995.5
2017-10-11T02:40:22.689Z,995.5
2017-10-11T02:40:42.875Z,995.6
2017-10-11T02:41:03.049Z,995.5
2017-10-11T02:41:23.240Z,995.6
2017-10-11T02:41:43.413Z,995.6
2017-10-11T02:42:03.631Z,995.6
2017-10-11T02:42:23.792Z,995.6
2017-10-11T02:42:43.953Z,995.5
2017-10-11T02:43:04.129Z,995.5
2017-10-11T02:43:24.318Z,995.6
2017-10-11T02:43:44.487Z,995.5
2017-10-11T02:44:04.671Z,995.5
2017-10-11T02:44:24.871Z,995.6
2017-10-11T02:44:45.072Z,995.5
2017-10-11T02:45:05.264Z,995.5
2017-10-11T02:45:25.445Z,995.6
2017-10-11T02:45:45.637Z,995.5
2017-10-11T02:46:05.806Z,995.6
2017-10-11T02:46:25.985Z,995.5
2017-10-11T02:46:46.540Z,995.5
2017-10-11T02:47:07.467Z,995.5
2017-10-11T02:47:28.550Z,995.5
2017-10-11T02:47:49.092Z,995.5
2017-10-11T02:48:09.267Z,995.5
2017-10-11T02:48:29.445Z,995.5
2017-10-11T02:48:49.621Z,995.5
2017-10-11T02:49:09.782Z,995.5
2017-10-11T02:49:29.949Z,995.5
2017-10-11T02:49:50.126Z,995.5
2017-10-11T02:50:10.314Z,995.5
2017-10-11T02:50:30.485Z,995.5
2017-10-11T02:50:50.657Z,995.5
2017-10-11T02:51:10.852Z,995.5
2017-10-11T02:51:31.075Z,995.5
2017-10-11T02:51:51.361Z,995.5
2017-10-11T02:52:11.531Z,995.4
2017-10-11T02:52:31.705Z,995.5
2017-10-11T02:52:51.959Z,995.5
2017-10-11T02:53:12.194Z,995.5
2017-10-11T02:53:32.418Z,995.5
2017-10-11T02:53:52.587Z,995.5
2017-10-11T02:54:12.766Z,995.5
2017-10-11T02:54:32.943Z,995.5
2017-10-11T02:54:53.119Z,995.5
2017-10-11T02:55:13.305Z,995.4
2017-10-11T02:55:33.478Z,995.4
2017-10-11T02:55:53.795Z,995.5
2017-10-11T02:56:13.973Z,995.5
2017-10-11T02:56:34.153Z,995.5
2017-10-11T02:56:54.318Z,995.4
2017-10-11T02:57:14.648Z,995.5
2017-10-11T02:57:34.841Z,995.5
2017-10-11T02:57:55.120Z,995.5
2017-10-11T02:58:15.342Z,995.5
2017-10-11T02:58:35.519Z,995.5
2017-10-11T02:58:55.699Z,995.5
2017-10-11T02:59:15.874Z,995.5
2017-10-11T02:59:36.051Z,995.5
2017-10-11T02:59:56.284Z,995.5
2017-10-11T03:00:16.533Z,995.4
2017-10-11T03:00:36.850Z,995.4
2017-10-11T03:00:57.034Z,995.5
2017-10-11T03:01:17.199Z,995.4
2017-10-11T03:01:37.369Z,995.5
2017-10-11T03:01:57.557Z,995.4
2017-10-11T03:02:17.795Z,995.4
2017-10-11T03:02:37.970Z,995.4
2017-10-11T03:02:58.136Z,995.4
2017-10-11T03:03:18.310Z,995.5
2017-10-11T03:03:38.549Z,995.4
2017-10-11T03:03:58.783Z,995.4
2017-10-11T03:04:19.024Z,995.4
2017-10-11T03:04:39.769Z,995.4
2017-10-11T03:05:00.325Z,995.4
2017-10-11T03:05:20.516Z,995.4
2017-10-11T03:05:40.735Z,995.4
2017-10-11T03:06:00.915Z,995.4
2017-10-11T03:06:21.159Z,995.4
2017-10-11T03:06:41.350Z,995.4
2017-10-11T03:07:01.530Z,995.4
2017-10-11T03:07:21.702Z,995.4
2017-10-11T03:07:41.876Z,995.4
2017-10-11T03:08:02.133Z,995.4
2017-10-11T03:08:23.220Z,995.4
2017-10-11T03:08:43.410Z,995.3
2017-10-11T03:09:03.589Z,995.4
2017-10-11T03:09:23.777Z,995.4
2017-10-11T03:09:43.945Z,995.4
2017-10-11T03:10:04.109Z,995.4
2017-10-11T03:10:24.281Z,995.4
2017-10-11T03:10:44.462Z,995.4
2017-10-11T03:11:04.643Z,995.4
2017-10-11T03:11:24.823Z,995.4
2017-10-11T03:11:45.013Z,995.3
2017-10-11T03:12:05.189Z,995.4
2017-10-11T03:12:25.376Z,995.3
2017-10-11T03:12:45.573Z,995.4
2017-10-11T03:13:05.804Z,995.3
2017-10-11T03:13:26.427Z,995.3
2017-10-11T03:13:46.604Z,995.4
2017-10-11T03:14:06.820Z,995.3
2017-10-11T03:14:26.988Z,995.3
2017-10-11T03:14:47.160Z,995.3
2017-10-11T03:15:07.351Z,995.4
2017-10-11T03:15:27.521Z,995.3
2017-10-11T03:15:47.696Z,995.3
2017-10-11T03:16:07.938Z,995.4
2017-10-11T03:16:28.127Z,995.3
2017-10-11T03:16:48.308Z,995.3
2017-10-11T03:17:08.482Z,995.3
2017-10-11T03:17:28.661Z,995.3
2017-10-11T03:17:48.844Z,995.3
2017-10-11T03:18:09.029Z,995.3
2017-10-11T03:18:29.287Z,995.3
2017-10-11T03:18:49.519Z,995.3
2017-10-11T03:19:09.797Z,995.3
2017-10-11T03:19:30.516Z,995.4
2017-10-11T03:19:51.278Z,995.3
2017-10-11T03:20:11.551Z,995.3
2017-10-11T03:20:31.723Z,995.3
2017-10-11T03:20:51.897Z,995.3
2017-10-11T03:21:12.094Z,995.3
2017-10-11T03:21:32.269Z,995.3
2017-10-11T03:21:52.479Z,995.3
2017-10-11T03:22:12.650Z,995.3
2017-10-11T03:22:32.826Z,995.3
2017-10-11T03:22:53.056Z,995.3
2017-10-11T03:23:13.233Z,995.3
2017-10-11T03:23:33.479Z,995.3
2017-10-11T03:23:53.688Z,995.3
2017-10-11T03:24:14.533Z,995.3
2017-10-11T03:24:34.714Z,995.3
2017-10-11T03:24:54.966Z,995.3
2017-10-11T03:25:15.134Z,995.3
2017-10-11T03:25:35.381Z,995.2
2017-10-11T03:25:55.557Z,995.3
2017-10-11T03:26:15.726Z,995.3
2017-10-11T03:26:35.903Z,995.3
2017-10-11T03:26:56.137Z,995.3
2017-10-11T03:27:16.308Z,995.3
2017-10-11T03:27:36.580Z,995.3
2017-10-11T03:27:56.848Z,995.3
2017-10-11T03:28:17.019Z,995.2
2017-10-11T03:28:37.193Z,995.3
2017-10-11T03:28:57.435Z,995.3
2017-10-11T03:29:17.614Z,995.4
2017-10-11T03:29:37.785Z,995.3
2017-10-11T03:29:57.944Z,995.3
2017-10-11T03:30:18.217Z,995.4
2017-10-11T03:30:38.386Z,995.4
2017-10-11T03:30:58.569Z,995.3
2017-10-11T03:31:18.739Z,995.3
2017-10-11T03:31:38.919Z,995.4
2017-10-11T03:31:59.113Z,995.3
2017-10-11T03:32:19.297Z,995.3
2017-10-11T03:32:39.467Z,995.3
2017-10-11T03:32:59.648Z,995.3
2017-10-11T03:33:19.905Z,995.3
2017-10-11T03:33:40.048Z,995.3
2017-10-11T03:34:00.222Z,995.3
2017-10-11T03:34:20.571Z,995.4
2017-10-11T03:34:40.738Z,995.3
2017-10-11T03:35:00.962Z,995.3
2017-10-11T03:35:21.173Z,995.3
2017-10-11T03:35:41.364Z,995.3
2017-10-11T03:36:01.541Z,995.3
2017-10-11T03:36:21.725Z,995.4
2017-10-11T03:36:41.908Z,995.3
2017-10-11T03:37:02.075Z,995.4
2017-10-11T03:37:22.246Z,995.3
2017-10-11T03:37:42.434Z,995.4
2017-10-11T03:38:02.602Z,995.4
2017-10-11T03:38:22.780Z,995.4
2017-10-11T03:38:42.975Z,995.4
2017-10-11T03:39:03.151Z,995.4
2017-10-11T03:39:23.325Z,995.4
2017-10-11T03:39:43.637Z,995.3
2017-10-11T03:40:03.835Z,995.4
2017-10-11T03:40:24.060Z,995.4
2017-10-11T03:40:44.242Z,995.3
2017-10-11T03:41:04.428Z,995.3
2017-10-11T03:41:24.677Z,995.4
2017-10-11T03:41:44.859Z,995.3
2017-10-11T03:42:05.043Z,995.3
2017-10-11T03:42:25.220Z,995.3
2017-10-11T03:42:45.400Z,995.3
2017-10-11T03:43:05.571Z,995.3
2017-10-11T03:43:25.750Z,995.3
2017-10-11T03:43:45.921Z,995.4
2017-10-11T03:44:06.093Z,995.3
2017-10-11T03:44:26.278Z,995.4
2017-10-11T03:44:46.458Z,995.3
2017-10-11T03:45:06.638Z,995.3
2017-10-11T03:45:26.811Z,995.3
2017-10-11T03:45:46.977Z,995.3
2017-10-11T03:46:07.155Z,995.3
2017-10-11T03:46:27.335Z,995.3
2017-10-11T03:46:47.638Z,995.3
2017-10-11T03:47:07.824Z,995.3
2017-10-11T03:47:27.988Z,995.3
2017-10-11T03:47:48.236Z,995.4
2017-10-11T03:48:08.395Z,995.3
2017-10-11T03:48:28.571Z,995.3
2017-10-11T03:48:48.739Z,995.4
2017-10-11T03:49:08.970Z,995.3
2017-10-11T03:49:29.145Z,995.3
2017-10-11T03:49:49.335Z,995.3
2017-10-11T03:50:09.515Z,995.3
2017-10-11T03:50:29.738Z,995.3
2017-10-11T03:50:49.917Z,995.3
2017-10-11T03:51:10.088Z,995.3
2017-10-11T03:51:30.336Z,995.3
2017-10-11T03:51:50.507Z,995.3
2017-10-11T03:52:10.745Z,995.3
2017-10-11T03:52:30.919Z,995.3
2017-10-11T03:52:51.094Z,995.3
2017-10-11T03:53:11.264Z,995.3
2017-10-11T03:53:31.444Z,995.3
2017-10-11T03:53:51.629Z,995.3
2017-10-11T03:54:11.811Z,995.3
2017-10-11T03:54:31.994Z,995.3
2017-10-11T03:54:52.223Z,995.3
2017-10-11T03:55:12.401Z,995.3
2017-10-11T03:55:32.642Z,995.3
2017-10-11T03:55:52.822Z,995.3
2017-10-11T03:56:13.004Z,995.3
2017-10-11T03:56:33.187Z,995.3
2017-10-11T03:56:53.416Z,995.3
2017-10-11T03:57:13.577Z,995.3
2017-10-11T03:57:33.752Z,995.3
2017-10-11T03:57:53.932Z,995.3
2017-10-11T03:58:14.105Z,995.3
2017-10-11T03:58:34.278Z,995.3
2017-10-11T03:58:54.464Z,995.2
2017-10-11T03:59:14.653Z,995.3
2017-10-11T03:59:34.816Z,995.2
2017-10-11T03:59:55.111Z,995.2
2017-10-11T04:00:15.288Z,995.3
2017-10-11T04:00:35.538Z,995.3
2017-10-11T04:00:55.709Z,995.3
2017-10-11T04:01:15.880Z,995.2
2017-10-11T04:01:36.051Z,995.2
2017-10-11T04:01:56.232Z,995.3
2017-10-11T04:02:16.410Z,995.3
2017-10-11T04:02:36.577Z,995.3
2017-10-11T04:02:56.908Z,995.3
2017-10-11T04:03:17.083Z,995.3
2017-10-11T04:03:37.293Z,995.3
2017-10-11T04:03:57.483Z,995.3
2017-10-11T04:04:17.675Z,995.3
2017-10-11T04:04:37.856Z,995.2
2017-10-11T04:04:58.046Z,995.3
2017-10-11T04:05:18.226Z,995.3
2017-10-11T04:05:38.407Z,995.3
2017-10-11T04:05:58.576Z,995.3
2017-10-11T04:06:19.036Z,995.3
2017-10-11T04:06:39.332Z,995.3
2017-10-11T04:06:59.516Z,995.3
2017-10-11T04:07:19.757Z,995.3
2017-10-11T04:07:40.026Z,995.3
2017-10-11T04:08:00.218Z,995.3
2017-10-11T04:08:20.484Z,995.3
2017-10-11T04:08:40.717Z,995.3
2017-10-11T04:09:00.894Z,995.3
2017-10-11T04:09:21.086Z,995.3
2017-10-11T04:09:41.272Z,995.3
2017-10-11T04:10:01.453Z,995.4
2017-10-11T04:10:21.635Z,995.3
2017-10-11T04:10:41.812Z,995.4
2017-10-11T04:11:01.992Z,995.4
2017-10-11T04:11:22.172Z,995.4
2017-10-11T04:11:42.360Z,995.4
2017-10-11T04:12:02.530Z,995.4
2017-10-11T04:12:22.770Z,995.4
2017-10-11T04:12:42.949Z,995.4
2017-10-11T04:13:03.136Z,995.4
2017-10-11T04:13:23.315Z,995.4
2017-10-11T04:13:43.495Z,995.4
2017-10-11T04:14:03.694Z,995.4
2017-10-11T04:14:23.869Z,995.5
2017-10-11T04:14:44.035Z,995.4
2017-10-11T04:15:04.210Z,995.4
2017-10-11T04:15:24.384Z,995.4
2017-10-11T04:15:44.557Z,995.4
2017-10-11T04:16:04.802Z,995.4
2017-10-11T04:16:24.978Z,995.4
2017-10-11T04:16:45.166Z,995.4
2017-10-11T04:17:05.337Z,995.4
2017-10-11T04:17:25.558Z,995.4
2017-10-11T04:17:45.745Z,995.4
2017-10-11T04:18:05.913Z,995.4
2017-10-11T04:18:26.155Z,995.4
2017-10-11T04:18:46.337Z,995.4
2017-10-11T04:19:06.523Z,995.4
2017-10-11T04:19:26.704Z,995.4
2017-10-11T04:19:46.889Z,995.4
2017-10-11T04:20:07.062Z,995.4
2017-10-11T04:20:27.246Z,995.4
2017-10-11T04:20:47.429Z,995.4
2017-10-11T04:21:07.591Z,995.4
2017-10-11T04:21:27.791Z,995.4